sensor_id;sensor_type;location;lat;lon;timestamp;P1;durP1;ratioP1;P2;durP2;ratioP2
39264;SDS011;42646;51.910;7.724;2023-02-05T00:02:11;11.65;;;8.90;;
39264;SDS011;42646;51.910;7.724;2023-02-05T00:04:39;12.32;;;8.73;;
39264;SDS011;42646;51.910;7.724;2023-02-05T00:07:09;11.90;;;8.43;;
39264;SDS011;42646;51.910;7.724;2023-02-05T00:09:36;10.07;;;7.57;;
39264;SDS011;42646;51.910;7.724;2023-02-05T00:12:07;9.90;;;7.30;;
39264;SDS011;42646;51.910;7.724;2023-02-05T00:14:36;10.27;;;7.30;;
39264;SDS011;42646;51.910;7.724;2023-02-05T00:17:03;9.77;;;7.38;;
39264;SDS011;42646;51.910;7.724;2023-02-05T00:19:32;10.43;;;7.05;;
39264;SDS011;42646;51.910;7.724;2023-02-05T00:21:59;11.13;;;7.40;;
39264;SDS011;42646;51.910;7.724;2023-02-05T00:24:28;9.77;;;6.68;;
39264;SDS011;42646;51.910;7.724;2023-02-05T00:26:56;10.27;;;7.05;;
39264;SDS011;42646;51.910;7.724;2023-02-05T00:29:24;10.00;;;6.78;;
39264;SDS011;42646;51.910;7.724;2023-02-05T00:31:51;9.27;;;6.80;;
39264;SDS011;42646;51.910;7.724;2023-02-05T00:34:20;10.77;;;6.78;;
39264;SDS011;42646;51.910;7.724;2023-02-05T00:36:48;8.88;;;7.30;;
39264;SDS011;42646;51.910;7.724;2023-02-05T00:39:15;10.52;;;8.20;;
39264;SDS011;42646;51.910;7.724;2023-02-05T00:41:47;12.73;;;8.75;;
39264;SDS011;42646;51.910;7.724;2023-02-05T00:44:14;12.13;;;8.82;;
39264;SDS011;42646;51.910;7.724;2023-02-05T00:46:43;11.85;;;8.60;;
39264;SDS011;42646;51.910;7.724;2023-02-05T00:49:10;10.65;;;8.23;;
39264;SDS011;42646;51.910;7.724;2023-02-05T00:51:38;11.13;;;9.13;;
39264;SDS011;42646;51.910;7.724;2023-02-05T00:54:06;12.05;;;8.43;;
39264;SDS011;42646;51.910;7.724;2023-02-05T00:56:35;12.52;;;9.20;;
39264;SDS011;42646;51.910;7.724;2023-02-05T00:59:04;11.02;;;8.75;;
39264;SDS011;42646;51.910;7.724;2023-02-05T01:01:32;11.80;;;9.18;;
39264;SDS011;42646;51.910;7.724;2023-02-05T01:04:01;11.40;;;9.23;;
39264;SDS011;42646;51.910;7.724;2023-02-05T01:06:29;13.02;;;9.55;;
39264;SDS011;42646;51.910;7.724;2023-02-05T01:08:56;12.23;;;9.38;;
39264;SDS011;42646;51.910;7.724;2023-02-05T01:11:25;11.75;;;9.23;;
39264;SDS011;42646;51.910;7.724;2023-02-05T01:13:53;13.05;;;9.18;;
39264;SDS011;42646;51.910;7.724;2023-02-05T01:16:22;15.32;;;9.30;;
39264;SDS011;42646;51.910;7.724;2023-02-05T01:18:50;11.30;;;9.18;;
39264;SDS011;42646;51.910;7.724;2023-02-05T01:21:21;11.95;;;9.23;;
39264;SDS011;42646;51.910;7.724;2023-02-05T01:23:50;13.88;;;9.25;;
39264;SDS011;42646;51.910;7.724;2023-02-05T01:26:17;13.63;;;9.38;;
39264;SDS011;42646;51.910;7.724;2023-02-05T01:28:45;12.65;;;9.38;;
39264;SDS011;42646;51.910;7.724;2023-02-05T01:31:13;12.75;;;9.10;;
39264;SDS011;42646;51.910;7.724;2023-02-05T01:33:43;12.35;;;9.43;;
39264;SDS011;42646;51.910;7.724;2023-02-05T01:36:10;11.32;;;9.02;;
39264;SDS011;42646;51.910;7.724;2023-02-05T01:38:39;12.00;;;9.27;;
39264;SDS011;42646;51.910;7.724;2023-02-05T01:41:07;12.18;;;8.90;;
39264;SDS011;42646;51.910;7.724;2023-02-05T01:43:37;12.70;;;9.18;;
39264;SDS011;42646;51.910;7.724;2023-02-05T01:46:20;13.68;;;9.52;;
39264;SDS011;42646;51.910;7.724;2023-02-05T01:48:53;10.93;;;8.98;;
39264;SDS011;42646;51.910;7.724;2023-02-05T01:51:24;13.32;;;9.05;;
39264;SDS011;42646;51.910;7.724;2023-02-05T01:53:55;14.55;;;9.93;;
39264;SDS011;42646;51.910;7.724;2023-02-05T01:56:23;12.45;;;9.50;;
39264;SDS011;42646;51.910;7.724;2023-02-05T01:58:56;11.82;;;9.48;;
39264;SDS011;42646;51.910;7.724;2023-02-05T02:01:27;11.20;;;8.90;;
39264;SDS011;42646;51.910;7.724;2023-02-05T02:03:56;13.43;;;9.32;;
39264;SDS011;42646;51.910;7.724;2023-02-05T02:06:30;13.10;;;9.43;;
39264;SDS011;42646;51.910;7.724;2023-02-05T02:08:59;12.30;;;9.15;;
39264;SDS011;42646;51.910;7.724;2023-02-05T02:11:28;12.98;;;8.93;;
39264;SDS011;42646;51.910;7.724;2023-02-05T02:14:00;13.52;;;9.52;;
39264;SDS011;42646;51.910;7.724;2023-02-05T02:16:32;11.60;;;9.02;;
39264;SDS011;42646;51.910;7.724;2023-02-05T02:19:06;12.48;;;8.95;;
39264;SDS011;42646;51.910;7.724;2023-02-05T02:22:04;13.00;;;9.40;;
39264;SDS011;42646;51.910;7.724;2023-02-05T02:27:50;12.07;;;8.98;;
39264;SDS011;42646;51.910;7.724;2023-02-05T02:30:24;11.32;;;8.48;;
39264;SDS011;42646;51.910;7.724;2023-02-05T02:33:00;11.50;;;8.45;;
39264;SDS011;42646;51.910;7.724;2023-02-05T02:35:35;11.13;;;8.73;;
39264;SDS011;42646;51.910;7.724;2023-02-05T02:38:15;11.50;;;8.90;;
39264;SDS011;42646;51.910;7.724;2023-02-05T02:40:50;13.23;;;9.52;;
39264;SDS011;42646;51.910;7.724;2023-02-05T02:43:24;13.05;;;9.23;;
39264;SDS011;42646;51.910;7.724;2023-02-05T02:45:59;14.13;;;10.23;;
39264;SDS011;42646;51.910;7.724;2023-02-05T02:48:31;11.68;;;8.85;;
39264;SDS011;42646;51.910;7.724;2023-02-05T02:51:26;12.02;;;8.68;;
39264;SDS011;42646;51.910;7.724;2023-02-05T02:53:56;11.95;;;8.98;;
39264;SDS011;42646;51.910;7.724;2023-02-05T02:56:27;13.23;;;9.38;;
39264;SDS011;42646;51.910;7.724;2023-02-05T02:59:08;11.70;;;8.80;;
39264;SDS011;42646;51.910;7.724;2023-02-05T03:01:39;12.05;;;8.63;;
39264;SDS011;42646;51.910;7.724;2023-02-05T03:04:20;12.38;;;8.73;;
39264;SDS011;42646;51.910;7.724;2023-02-05T03:06:55;13.88;;;8.75;;
39264;SDS011;42646;51.910;7.724;2023-02-05T03:09:31;11.93;;;8.75;;
39264;SDS011;42646;51.910;7.724;2023-02-05T03:12:28;13.48;;;8.85;;
39264;SDS011;42646;51.910;7.724;2023-02-05T03:14:58;12.80;;;9.05;;
39264;SDS011;42646;51.910;7.724;2023-02-05T03:17:26;12.80;;;9.50;;
39264;SDS011;42646;51.910;7.724;2023-02-05T03:19:58;12.03;;;9.37;;
39264;SDS011;42646;51.910;7.724;2023-02-05T03:22:30;14.00;;;8.77;;
39264;SDS011;42646;51.910;7.724;2023-02-05T03:24:58;13.13;;;9.70;;
39264;SDS011;42646;51.910;7.724;2023-02-05T03:27:29;12.98;;;8.98;;
39264;SDS011;42646;51.910;7.724;2023-02-05T03:30:00;14.65;;;9.48;;
39264;SDS011;42646;51.910;7.724;2023-02-05T03:32:31;13.20;;;8.88;;
39264;SDS011;42646;51.910;7.724;2023-02-05T03:35:11;11.75;;;8.88;;
39264;SDS011;42646;51.910;7.724;2023-02-05T03:37:53;10.45;;;8.82;;
39264;SDS011;42646;51.910;7.724;2023-02-05T03:40:37;12.40;;;9.20;;
39264;SDS011;42646;51.910;7.724;2023-02-05T03:43:11;12.10;;;8.80;;
39264;SDS011;42646;51.910;7.724;2023-02-05T03:45:50;12.52;;;8.90;;
39264;SDS011;42646;51.910;7.724;2023-02-05T03:48:31;13.27;;;9.02;;
39264;SDS011;42646;51.910;7.724;2023-02-05T03:51:10;14.90;;;10.15;;
39264;SDS011;42646;51.910;7.724;2023-02-05T03:53:53;13.82;;;9.43;;
39264;SDS011;42646;51.910;7.724;2023-02-05T03:56:56;11.85;;;8.50;;
39264;SDS011;42646;51.910;7.724;2023-02-05T03:59:30;11.43;;;9.40;;
39264;SDS011;42646;51.910;7.724;2023-02-05T04:02:03;13.57;;;9.23;;
39264;SDS011;42646;51.910;7.724;2023-02-05T04:04:38;12.90;;;9.13;;
39264;SDS011;42646;51.910;7.724;2023-02-05T04:07:08;13.85;;;9.50;;
39264;SDS011;42646;51.910;7.724;2023-02-05T04:09:40;12.00;;;9.18;;
39264;SDS011;42646;51.910;7.724;2023-02-05T04:12:09;12.15;;;9.13;;
39264;SDS011;42646;51.910;7.724;2023-02-05T04:14:38;12.50;;;10.02;;
39264;SDS011;42646;51.910;7.724;2023-02-05T04:17:08;14.85;;;9.35;;
39264;SDS011;42646;51.910;7.724;2023-02-05T04:19:36;14.27;;;9.30;;
39264;SDS011;42646;51.910;7.724;2023-02-05T04:22:10;12.25;;;9.70;;
39264;SDS011;42646;51.910;7.724;2023-02-05T04:24:42;13.90;;;9.50;;
39264;SDS011;42646;51.910;7.724;2023-02-05T04:27:11;12.65;;;8.88;;
39264;SDS011;42646;51.910;7.724;2023-02-05T04:29:39;13.48;;;10.10;;
39264;SDS011;42646;51.910;7.724;2023-02-05T04:32:10;14.32;;;9.55;;
39264;SDS011;42646;51.910;7.724;2023-02-05T04:34:39;11.85;;;9.00;;
39264;SDS011;42646;51.910;7.724;2023-02-05T04:37:10;12.57;;;9.45;;
39264;SDS011;42646;51.910;7.724;2023-02-05T04:39:42;13.52;;;10.18;;
39264;SDS011;42646;51.910;7.724;2023-02-05T04:42:11;11.52;;;8.82;;
39264;SDS011;42646;51.910;7.724;2023-02-05T04:44:39;13.38;;;9.40;;
39264;SDS011;42646;51.910;7.724;2023-02-05T04:47:06;13.48;;;10.20;;
39264;SDS011;42646;51.910;7.724;2023-02-05T04:49:35;14.13;;;10.32;;
39264;SDS011;42646;51.910;7.724;2023-02-05T04:52:03;15.60;;;10.48;;
39264;SDS011;42646;51.910;7.724;2023-02-05T04:54:31;15.82;;;10.00;;
39264;SDS011;42646;51.910;7.724;2023-02-05T04:57:02;13.77;;;10.27;;
39264;SDS011;42646;51.910;7.724;2023-02-05T04:59:30;14.43;;;9.82;;
39264;SDS011;42646;51.910;7.724;2023-02-05T05:01:59;12.88;;;9.80;;
39264;SDS011;42646;51.910;7.724;2023-02-05T05:04:27;15.30;;;10.63;;
39264;SDS011;42646;51.910;7.724;2023-02-05T05:06:57;12.05;;;9.82;;
39264;SDS011;42646;51.910;7.724;2023-02-05T05:09:27;14.18;;;9.70;;
39264;SDS011;42646;51.910;7.724;2023-02-05T05:11:54;15.35;;;9.77;;
39264;SDS011;42646;51.910;7.724;2023-02-05T05:14:24;11.38;;;9.00;;
39264;SDS011;42646;51.910;7.724;2023-02-05T05:16:52;13.75;;;10.05;;
39264;SDS011;42646;51.910;7.724;2023-02-05T05:19:24;16.67;;;10.70;;
39264;SDS011;42646;51.910;7.724;2023-02-05T05:21:52;13.88;;;10.25;;
39264;SDS011;42646;51.910;7.724;2023-02-05T05:26:52;15.45;;;10.43;;
39264;SDS011;42646;51.910;7.724;2023-02-05T05:29:20;15.38;;;10.88;;
39264;SDS011;42646;51.910;7.724;2023-02-05T05:31:50;14.32;;;10.15;;
39264;SDS011;42646;51.910;7.724;2023-02-05T05:34:18;13.45;;;9.98;;
39264;SDS011;42646;51.910;7.724;2023-02-05T05:36:46;15.77;;;10.48;;
39264;SDS011;42646;51.910;7.724;2023-02-05T05:39:13;15.63;;;10.40;;
39264;SDS011;42646;51.910;7.724;2023-02-05T05:42:08;17.50;;;10.50;;
39264;SDS011;42646;51.910;7.724;2023-02-05T05:44:54;13.48;;;9.55;;
39264;SDS011;42646;51.910;7.724;2023-02-05T05:47:24;12.70;;;9.27;;
39264;SDS011;42646;51.910;7.724;2023-02-05T05:49:55;13.93;;;10.00;;
39264;SDS011;42646;51.910;7.724;2023-02-05T05:52:22;15.25;;;9.80;;
39264;SDS011;42646;51.910;7.724;2023-02-05T05:54:58;16.23;;;10.15;;
39264;SDS011;42646;51.910;7.724;2023-02-05T05:57:28;15.32;;;9.60;;
39264;SDS011;42646;51.910;7.724;2023-02-05T05:59:55;12.95;;;9.05;;
39264;SDS011;42646;51.910;7.724;2023-02-05T06:02:23;14.10;;;9.75;;
39264;SDS011;42646;51.910;7.724;2023-02-05T06:04:51;13.93;;;10.00;;
39264;SDS011;42646;51.910;7.724;2023-02-05T06:07:19;15.05;;;10.02;;
39264;SDS011;42646;51.910;7.724;2023-02-05T06:09:47;16.05;;;10.68;;
39264;SDS011;42646;51.910;7.724;2023-02-05T06:12:15;16.25;;;10.52;;
39264;SDS011;42646;51.910;7.724;2023-02-05T06:14:46;15.60;;;10.88;;
39264;SDS011;42646;51.910;7.724;2023-02-05T06:17:13;15.10;;;10.40;;
39264;SDS011;42646;51.910;7.724;2023-02-05T06:19:42;13.48;;;9.77;;
39264;SDS011;42646;51.910;7.724;2023-02-05T06:22:10;15.15;;;10.77;;
39264;SDS011;42646;51.910;7.724;2023-02-05T06:24:40;14.32;;;10.70;;
39264;SDS011;42646;51.910;7.724;2023-02-05T06:27:08;16.23;;;10.98;;
39264;SDS011;42646;51.910;7.724;2023-02-05T06:29:38;14.38;;;10.38;;
39264;SDS011;42646;51.910;7.724;2023-02-05T06:32:07;14.50;;;10.38;;
39264;SDS011;42646;51.910;7.724;2023-02-05T06:34:34;15.63;;;10.18;;
39264;SDS011;42646;51.910;7.724;2023-02-05T06:37:02;14.88;;;10.63;;
39264;SDS011;42646;51.910;7.724;2023-02-05T06:39:30;18.35;;;11.27;;
39264;SDS011;42646;51.910;7.724;2023-02-05T06:42:00;17.90;;;11.40;;
39264;SDS011;42646;51.910;7.724;2023-02-05T06:44:28;18.00;;;11.15;;
39264;SDS011;42646;51.910;7.724;2023-02-05T06:46:57;14.90;;;10.13;;
39264;SDS011;42646;51.910;7.724;2023-02-05T06:49:26;13.20;;;10.55;;
39264;SDS011;42646;51.910;7.724;2023-02-05T06:51:54;13.35;;;10.00;;
39264;SDS011;42646;51.910;7.724;2023-02-05T06:54:23;14.85;;;10.77;;
39264;SDS011;42646;51.910;7.724;2023-02-05T06:56:51;13.23;;;10.43;;
39264;SDS011;42646;51.910;7.724;2023-02-05T06:59:19;13.38;;;10.23;;
39264;SDS011;42646;51.910;7.724;2023-02-05T07:01:49;16.05;;;10.55;;
39264;SDS011;42646;51.910;7.724;2023-02-05T07:04:16;13.95;;;10.35;;
39264;SDS011;42646;51.910;7.724;2023-02-05T07:06:45;14.88;;;10.82;;
39264;SDS011;42646;51.910;7.724;2023-02-05T07:09:13;15.20;;;10.20;;
39264;SDS011;42646;51.910;7.724;2023-02-05T07:11:42;15.43;;;10.02;;
39264;SDS011;42646;51.910;7.724;2023-02-05T07:14:12;15.63;;;10.75;;
39264;SDS011;42646;51.910;7.724;2023-02-05T07:16:40;13.88;;;10.02;;
39264;SDS011;42646;51.910;7.724;2023-02-05T07:19:13;15.63;;;11.07;;
39264;SDS011;42646;51.910;7.724;2023-02-05T07:21:46;15.55;;;10.63;;
39264;SDS011;42646;51.910;7.724;2023-02-05T07:24:13;14.68;;;10.55;;
39264;SDS011;42646;51.910;7.724;2023-02-05T07:27:06;15.40;;;10.93;;
39264;SDS011;42646;51.910;7.724;2023-02-05T07:29:34;20.40;;;11.30;;
39264;SDS011;42646;51.910;7.724;2023-02-05T07:32:02;17.88;;;11.50;;
39264;SDS011;42646;51.910;7.724;2023-02-05T07:34:29;17.42;;;11.63;;
39264;SDS011;42646;51.910;7.724;2023-02-05T07:36:59;18.73;;;12.18;;
39264;SDS011;42646;51.910;7.724;2023-02-05T07:39:27;22.90;;;12.82;;
39264;SDS011;42646;51.910;7.724;2023-02-05T07:41:56;20.35;;;12.45;;
39264;SDS011;42646;51.910;7.724;2023-02-05T07:44:30;20.65;;;12.55;;
39264;SDS011;42646;51.910;7.724;2023-02-05T07:46:58;23.67;;;13.75;;
39264;SDS011;42646;51.910;7.724;2023-02-05T07:49:29;24.27;;;13.00;;
39264;SDS011;42646;51.910;7.724;2023-02-05T07:54:31;26.42;;;14.40;;
39264;SDS011;42646;51.910;7.724;2023-02-05T07:57:00;27.83;;;15.23;;
39264;SDS011;42646;51.910;7.724;2023-02-05T07:59:31;24.92;;;14.27;;
39264;SDS011;42646;51.910;7.724;2023-02-05T08:01:58;24.38;;;14.40;;
39264;SDS011;42646;51.910;7.724;2023-02-05T08:04:26;27.25;;;15.18;;
39264;SDS011;42646;51.910;7.724;2023-02-05T08:06:54;26.33;;;15.35;;
39264;SDS011;42646;51.910;7.724;2023-02-05T08:09:28;27.38;;;15.85;;
39264;SDS011;42646;51.910;7.724;2023-02-05T08:11:57;24.67;;;15.50;;
39264;SDS011;42646;51.910;7.724;2023-02-05T08:14:25;27.67;;;15.98;;
39264;SDS011;42646;51.910;7.724;2023-02-05T08:16:53;28.52;;;16.30;;
39264;SDS011;42646;51.910;7.724;2023-02-05T08:19:20;28.63;;;15.77;;
39264;SDS011;42646;51.910;7.724;2023-02-05T08:21:48;28.98;;;16.90;;
39264;SDS011;42646;51.910;7.724;2023-02-05T08:24:16;31.42;;;16.90;;
39264;SDS011;42646;51.910;7.724;2023-02-05T08:26:45;30.58;;;16.27;;
39264;SDS011;42646;51.910;7.724;2023-02-05T08:29:14;29.63;;;16.73;;
39264;SDS011;42646;51.910;7.724;2023-02-05T08:31:41;32.38;;;17.00;;
39264;SDS011;42646;51.910;7.724;2023-02-05T08:34:09;26.02;;;16.42;;
39264;SDS011;42646;51.910;7.724;2023-02-05T08:36:37;27.98;;;15.55;;
39264;SDS011;42646;51.910;7.724;2023-02-05T08:39:05;26.65;;;15.70;;
39264;SDS011;42646;51.910;7.724;2023-02-05T08:41:32;27.27;;;16.05;;
39264;SDS011;42646;51.910;7.724;2023-02-05T08:44:01;26.45;;;14.13;;
39264;SDS011;42646;51.910;7.724;2023-02-05T08:46:29;24.23;;;14.35;;
39264;SDS011;42646;51.910;7.724;2023-02-05T08:49:14;23.75;;;13.48;;
39264;SDS011;42646;51.910;7.724;2023-02-05T08:52:08;23.08;;;13.35;;
39264;SDS011;42646;51.910;7.724;2023-02-05T08:54:37;23.40;;;13.10;;
39264;SDS011;42646;51.910;7.724;2023-02-05T08:57:04;19.65;;;12.80;;
39264;SDS011;42646;51.910;7.724;2023-02-05T08:59:34;19.75;;;10.73;;
39264;SDS011;42646;51.910;7.724;2023-02-05T09:02:02;19.33;;;10.00;;
39264;SDS011;42646;51.910;7.724;2023-02-05T09:04:30;13.98;;;8.07;;
39264;SDS011;42646;51.910;7.724;2023-02-05T09:06:58;12.63;;;6.63;;
39264;SDS011;42646;51.910;7.724;2023-02-05T09:09:26;11.10;;;6.22;;
39264;SDS011;42646;51.910;7.724;2023-02-05T09:11:55;8.57;;;5.28;;
39264;SDS011;42646;51.910;7.724;2023-02-05T09:14:24;8.65;;;4.93;;
39264;SDS011;42646;51.910;7.724;2023-02-05T09:16:53;9.18;;;4.90;;
39264;SDS011;42646;51.910;7.724;2023-02-05T09:19:22;8.30;;;4.47;;
39264;SDS011;42646;51.910;7.724;2023-02-05T09:21:54;8.48;;;4.70;;
39264;SDS011;42646;51.910;7.724;2023-02-05T09:24:21;7.00;;;3.80;;
39264;SDS011;42646;51.910;7.724;2023-02-05T09:26:49;7.75;;;3.53;;
39264;SDS011;42646;51.910;7.724;2023-02-05T09:29:17;7.97;;;3.40;;
39264;SDS011;42646;51.910;7.724;2023-02-05T09:31:45;6.60;;;3.45;;
39264;SDS011;42646;51.910;7.724;2023-02-05T09:34:15;6.65;;;2.50;;
39264;SDS011;42646;51.910;7.724;2023-02-05T09:36:43;5.20;;;2.10;;
39264;SDS011;42646;51.910;7.724;2023-02-05T09:39:11;5.47;;;2.28;;
39264;SDS011;42646;51.910;7.724;2023-02-05T09:41:59;5.60;;;2.00;;
39264;SDS011;42646;51.910;7.724;2023-02-05T09:44:38;4.03;;;1.65;;
39264;SDS011;42646;51.910;7.724;2023-02-05T09:47:30;4.88;;;1.48;;
39264;SDS011;42646;51.910;7.724;2023-02-05T09:50:05;4.97;;;1.55;;
39264;SDS011;42646;51.910;7.724;2023-02-05T09:52:41;4.97;;;1.48;;
39264;SDS011;42646;51.910;7.724;2023-02-05T09:55:15;4.20;;;1.40;;
39264;SDS011;42646;51.910;7.724;2023-02-05T09:57:51;3.00;;;1.38;;
39264;SDS011;42646;51.910;7.724;2023-02-05T10:00:23;5.43;;;2.80;;
39264;SDS011;42646;51.910;7.724;2023-02-05T10:03:00;5.22;;;2.10;;
39264;SDS011;42646;51.910;7.724;2023-02-05T10:05:40;5.38;;;2.13;;
39264;SDS011;42646;51.910;7.724;2023-02-05T10:08:16;4.40;;;1.60;;
39264;SDS011;42646;51.910;7.724;2023-02-05T10:10:51;5.72;;;2.13;;
39264;SDS011;42646;51.910;7.724;2023-02-05T10:13:25;4.38;;;1.60;;
39264;SDS011;42646;51.910;7.724;2023-02-05T10:16:04;5.88;;;1.50;;
39264;SDS011;42646;51.910;7.724;2023-02-05T10:18:43;3.45;;;1.75;;
39264;SDS011;42646;51.910;7.724;2023-02-05T10:21:27;5.10;;;2.20;;
39264;SDS011;42646;51.910;7.724;2023-02-05T10:27:04;6.93;;;2.88;;
39264;SDS011;42646;51.910;7.724;2023-02-05T10:29:42;4.78;;;2.90;;
39264;SDS011;42646;51.910;7.724;2023-02-05T10:32:45;4.35;;;2.30;;
39264;SDS011;42646;51.910;7.724;2023-02-05T10:35:22;3.58;;;1.48;;
39264;SDS011;42646;51.910;7.724;2023-02-05T10:37:55;3.55;;;1.50;;
39264;SDS011;42646;51.910;7.724;2023-02-05T10:40:25;3.95;;;1.40;;
39264;SDS011;42646;51.910;7.724;2023-02-05T10:42:59;6.00;;;1.50;;
39264;SDS011;42646;51.910;7.724;2023-02-05T10:45:30;4.40;;;1.38;;
39264;SDS011;42646;51.910;7.724;2023-02-05T10:48:09;3.92;;;1.45;;
39264;SDS011;42646;51.910;7.724;2023-02-05T10:50:53;5.18;;;1.50;;
39264;SDS011;42646;51.910;7.724;2023-02-05T10:53:26;3.10;;;1.23;;
39264;SDS011;42646;51.910;7.724;2023-02-05T10:55:56;4.10;;;1.50;;
39264;SDS011;42646;51.910;7.724;2023-02-05T10:58:35;4.22;;;1.30;;
39264;SDS011;42646;51.910;7.724;2023-02-05T11:01:05;3.92;;;1.42;;
39264;SDS011;42646;51.910;7.724;2023-02-05T11:03:37;3.67;;;1.30;;
39264;SDS011;42646;51.910;7.724;2023-02-05T11:06:07;2.58;;;1.50;;
39264;SDS011;42646;51.910;7.724;2023-02-05T11:08:39;4.35;;;1.50;;
39264;SDS011;42646;51.910;7.724;2023-02-05T11:11:17;4.43;;;1.60;;
39264;SDS011;42646;51.910;7.724;2023-02-05T11:13:51;3.97;;;1.60;;
39264;SDS011;42646;51.910;7.724;2023-02-05T11:16:22;5.75;;;1.52;;
39264;SDS011;42646;51.910;7.724;2023-02-05T11:18:55;4.07;;;1.60;;
39264;SDS011;42646;51.910;7.724;2023-02-05T11:21:44;5.57;;;1.90;;
39264;SDS011;42646;51.910;7.724;2023-02-05T11:24:25;3.42;;;1.65;;
39264;SDS011;42646;51.910;7.724;2023-02-05T11:30:15;7.95;;;2.15;;
39264;SDS011;42646;51.910;7.724;2023-02-05T11:33:24;4.03;;;2.35;;
39264;SDS011;42646;51.910;7.724;2023-02-05T11:35:55;6.40;;;2.90;;
39264;SDS011;42646;51.910;7.724;2023-02-05T11:38:30;5.32;;;2.30;;
39264;SDS011;42646;51.910;7.724;2023-02-05T11:41:02;5.03;;;2.45;;
39264;SDS011;42646;51.910;7.724;2023-02-05T11:43:32;5.88;;;2.55;;
39264;SDS011;42646;51.910;7.724;2023-02-05T11:46:02;6.40;;;2.42;;
39264;SDS011;42646;51.910;7.724;2023-02-05T11:48:36;4.40;;;2.17;;
39264;SDS011;42646;51.910;7.724;2023-02-05T11:51:08;4.03;;;2.40;;
39264;SDS011;42646;51.910;7.724;2023-02-05T11:53:45;6.72;;;3.20;;
39264;SDS011;42646;51.910;7.724;2023-02-05T11:56:20;4.25;;;2.55;;
39264;SDS011;42646;51.910;7.724;2023-02-05T11:58:57;4.80;;;2.70;;
39264;SDS011;42646;51.910;7.724;2023-02-05T12:01:27;4.30;;;2.78;;
39264;SDS011;42646;51.910;7.724;2023-02-05T12:04:00;4.75;;;2.75;;
39264;SDS011;42646;51.910;7.724;2023-02-05T12:06:32;4.95;;;3.15;;
39264;SDS011;42646;51.910;7.724;2023-02-05T12:09:07;5.57;;;3.22;;
39264;SDS011;42646;51.910;7.724;2023-02-05T12:11:42;5.40;;;3.33;;
39264;SDS011;42646;51.910;7.724;2023-02-05T12:14:38;5.15;;;3.60;;
39264;SDS011;42646;51.910;7.724;2023-02-05T12:17:17;5.82;;;3.65;;
39264;SDS011;42646;51.910;7.724;2023-02-05T12:19:57;7.22;;;3.70;;
39264;SDS011;42646;51.910;7.724;2023-02-05T12:22:39;6.13;;;3.92;;
39264;SDS011;42646;51.910;7.724;2023-02-05T12:25:25;6.40;;;4.40;;
39264;SDS011;42646;51.910;7.724;2023-02-05T12:28:08;6.70;;;4.18;;
39264;SDS011;42646;51.910;7.724;2023-02-05T12:30:49;6.53;;;4.25;;
39264;SDS011;42646;51.910;7.724;2023-02-05T12:33:40;6.82;;;4.10;;
39264;SDS011;42646;51.910;7.724;2023-02-05T12:36:26;7.03;;;4.32;;
39264;SDS011;42646;51.910;7.724;2023-02-05T12:39:06;5.70;;;4.30;;
39264;SDS011;42646;51.910;7.724;2023-02-05T12:41:50;7.32;;;5.15;;
39264;SDS011;42646;51.910;7.724;2023-02-05T12:44:32;7.40;;;5.43;;
39264;SDS011;42646;51.910;7.724;2023-02-05T12:47:13;7.95;;;4.72;;
39264;SDS011;42646;51.910;7.724;2023-02-05T12:50:02;9.70;;;6.47;;
39264;SDS011;42646;51.910;7.724;2023-02-05T12:52:50;9.70;;;5.40;;
39264;SDS011;42646;51.910;7.724;2023-02-05T12:55:33;6.93;;;4.68;;
39264;SDS011;42646;51.910;7.724;2023-02-05T13:00:46;6.55;;;4.35;;
39264;SDS011;42646;51.910;7.724;2023-02-05T13:03:21;6.70;;;4.43;;
39264;SDS011;42646;51.910;7.724;2023-02-05T13:05:56;6.32;;;4.38;;
39264;SDS011;42646;51.910;7.724;2023-02-05T13:08:33;6.55;;;4.70;;
39264;SDS011;42646;51.910;7.724;2023-02-05T13:11:10;8.48;;;6.05;;
39264;SDS011;42646;51.910;7.724;2023-02-05T13:13:45;9.50;;;6.40;;
39264;SDS011;42646;51.910;7.724;2023-02-05T13:16:46;10.07;;;6.10;;
39264;SDS011;42646;51.910;7.724;2023-02-05T13:19:21;9.25;;;6.10;;
39264;SDS011;42646;51.910;7.724;2023-02-05T13:21:54;9.70;;;6.28;;
39264;SDS011;42646;51.910;7.724;2023-02-05T13:24:41;10.48;;;6.18;;
39264;SDS011;42646;51.910;7.724;2023-02-05T13:27:32;10.45;;;6.57;;
39264;SDS011;42646;51.910;7.724;2023-02-05T13:30:23;10.55;;;6.40;;
39264;SDS011;42646;51.910;7.724;2023-02-05T13:32:57;8.85;;;5.88;;
39264;SDS011;42646;51.910;7.724;2023-02-05T13:35:30;9.07;;;6.07;;
39264;SDS011;42646;51.910;7.724;2023-02-05T13:38:07;9.45;;;6.00;;
39264;SDS011;42646;51.910;7.724;2023-02-05T13:44:01;11.73;;;5.60;;
39264;SDS011;42646;51.910;7.724;2023-02-05T13:46:59;11.70;;;5.70;;
39264;SDS011;42646;51.910;7.724;2023-02-05T13:50:04;14.70;;;7.95;;
39264;SDS011;42646;51.910;7.724;2023-02-05T13:53:04;12.35;;;5.38;;
39264;SDS011;42646;51.910;7.724;2023-02-05T13:56:06;9.57;;;5.47;;
39264;SDS011;42646;51.910;7.724;2023-02-05T13:58:47;9.20;;;4.88;;
39264;SDS011;42646;51.910;7.724;2023-02-05T14:01:18;8.10;;;5.03;;
39264;SDS011;42646;51.910;7.724;2023-02-05T14:03:54;9.00;;;4.35;;
39264;SDS011;42646;51.910;7.724;2023-02-05T14:09:27;10.68;;;4.47;;
39264;SDS011;42646;51.910;7.724;2023-02-05T14:12:02;9.48;;;4.35;;
39264;SDS011;42646;51.910;7.724;2023-02-05T14:14:34;8.80;;;4.05;;
39264;SDS011;42646;51.910;7.724;2023-02-05T14:17:03;10.82;;;4.60;;
39264;SDS011;42646;51.910;7.724;2023-02-05T14:20:28;7.97;;;4.10;;
39264;SDS011;42646;51.910;7.724;2023-02-05T14:23:01;7.05;;;4.32;;
39264;SDS011;42646;51.910;7.724;2023-02-05T14:28:32;9.32;;;4.93;;
39264;SDS011;42646;51.910;7.724;2023-02-05T14:34:25;10.27;;;5.20;;
39264;SDS011;42646;51.910;7.724;2023-02-05T14:37:24;11.10;;;4.70;;
39264;SDS011;42646;51.910;7.724;2023-02-05T14:39:57;11.98;;;4.60;;
39264;SDS011;42646;51.910;7.724;2023-02-05T14:42:25;9.30;;;4.32;;
39264;SDS011;42646;51.910;7.724;2023-02-05T14:44:55;10.30;;;4.07;;
39264;SDS011;42646;51.910;7.724;2023-02-05T14:47:27;11.82;;;3.80;;
39264;SDS011;42646;51.910;7.724;2023-02-05T14:50:03;9.75;;;3.75;;
39264;SDS011;42646;51.910;7.724;2023-02-05T14:52:33;10.10;;;4.00;;
39264;SDS011;42646;51.910;7.724;2023-02-05T14:55:06;8.90;;;3.30;;
39264;SDS011;42646;51.910;7.724;2023-02-05T14:57:45;12.63;;;3.63;;
39264;SDS011;42646;51.910;7.724;2023-02-05T15:00:21;11.00;;;3.73;;
39264;SDS011;42646;51.910;7.724;2023-02-05T15:03:06;9.65;;;3.35;;
39264;SDS011;42646;51.910;7.724;2023-02-05T15:06:00;8.18;;;3.50;;
39264;SDS011;42646;51.910;7.724;2023-02-05T15:11:35;13.00;;;3.50;;
39264;SDS011;42646;51.910;7.724;2023-02-05T15:14:25;7.78;;;3.40;;
39264;SDS011;42646;51.910;7.724;2023-02-05T15:20:13;9.00;;;3.30;;
39264;SDS011;42646;51.910;7.724;2023-02-05T15:22:51;9.52;;;3.13;;
39264;SDS011;42646;51.910;7.724;2023-02-05T15:25:28;10.52;;;3.63;;
39264;SDS011;42646;51.910;7.724;2023-02-05T15:28:02;9.40;;;3.65;;
39264;SDS011;42646;51.910;7.724;2023-02-05T15:30:42;11.43;;;4.13;;
39264;SDS011;42646;51.910;7.724;2023-02-05T15:33:20;12.27;;;4.30;;
39264;SDS011;42646;51.910;7.724;2023-02-05T15:35:54;10.77;;;3.53;;
39264;SDS011;42646;51.910;7.724;2023-02-05T15:38:25;12.40;;;3.22;;
39264;SDS011;42646;51.910;7.724;2023-02-05T15:40:58;11.57;;;3.80;;
39264;SDS011;42646;51.910;7.724;2023-02-05T15:43:33;8.45;;;3.65;;
39264;SDS011;42646;51.910;7.724;2023-02-05T15:46:03;12.70;;;3.88;;
39264;SDS011;42646;51.910;7.724;2023-02-05T15:48:34;10.18;;;3.80;;
39264;SDS011;42646;51.910;7.724;2023-02-05T15:51:09;10.98;;;3.63;;